createdAt,value
2022-12-18T06:17:10.044Z,1024.08
2022-12-18T06:27:10.062Z,1024.04
2022-12-18T06:37:10.016Z,1024.00
2022-12-18T06:47:09.884Z,1024.08
2022-12-18T06:57:09.984Z,1024.09
2022-12-18T07:07:10.014Z,1024.05
2022-12-18T07:17:10.201Z,1024.12
2022-12-18T07:27:09.987Z,1024.44
2022-12-18T07:37:10.198Z,1024.42
2022-12-18T07:47:12.230Z,1024.65
2022-12-18T07:57:33.764Z,1024.80
2022-12-18T08:07:10.032Z,1024.67
2022-12-18T08:17:10.047Z,1024.35
2022-12-18T08:27:29.910Z,1024.30
2022-12-18T08:37:09.938Z,1024.30
2022-12-18T08:47:10.020Z,1024.31
2022-12-18T08:57:10.294Z,1024.16
2022-12-18T09:07:09.932Z,1024.04
2022-12-18T09:17:10.211Z,1024.03
2022-12-18T09:27:09.982Z,1024.08
2022-12-18T09:37:10.023Z,1024.00
2022-12-18T09:47:10.110Z,1023.91
2022-12-18T09:57:10.068Z,1023.96
2022-12-18T10:07:10.074Z,1024.07
2022-12-18T10:17:10.064Z,1024.29
2022-12-18T10:27:10.161Z,1024.27
2022-12-18T10:37:10.121Z,1024.11
2022-12-18T10:47:11.980Z,1024.01
2022-12-18T10:57:10.218Z,1024.04
2022-12-18T11:07:10.182Z,1023.88
2022-12-18T11:17:25.280Z,1023.50
2022-12-18T11:27:10.276Z,1023.73
2022-12-18T11:37:10.299Z,1023.69
2022-12-18T11:47:10.365Z,1023.69
2022-12-18T11:57:10.286Z,1023.44
2022-12-18T12:07:10.193Z,1023.13
2022-12-18T12:17:10.255Z,1022.97
2022-12-18T12:27:10.170Z,1022.68
2022-12-18T12:37:10.385Z,1022.62
2022-12-18T12:47:10.254Z,1022.48
2022-12-18T12:57:10.173Z,1022.37
2022-12-18T13:07:10.236Z,1022.46
2022-12-18T13:17:10.437Z,1022.30
2022-12-18T13:27:10.208Z,1022.38
2022-12-18T13:37:10.213Z,1022.34
2022-12-18T13:47:10.423Z,1022.35
2022-12-18T13:57:10.497Z,1022.26
2022-12-18T14:07:10.410Z,1022.20
2022-12-18T14:17:10.458Z,1022.13
2022-12-18T14:27:10.477Z,1022.03
2022-12-18T14:37:10.398Z,1021.76
2022-12-18T14:47:10.337Z,1021.75
2022-12-18T14:57:10.267Z,1021.47
2022-12-18T15:07:10.319Z,1021.60
2022-12-18T15:17:10.350Z,1021.47
2022-12-18T15:27:10.435Z,1021.53
2022-12-18T15:37:10.333Z,1021.17
2022-12-18T15:47:10.501Z,1021.13
2022-12-18T15:57:10.383Z,1021.00
2022-12-18T16:07:15.165Z,1020.98
2022-12-18T16:17:10.468Z,1020.87
2022-12-18T16:27:10.324Z,1020.72
2022-12-18T16:37:10.374Z,1020.66
2022-12-18T16:47:11.092Z,1020.35
2022-12-18T16:57:10.497Z,1020.43
2022-12-18T17:07:10.272Z,1020.27
2022-12-18T17:17:22.823Z,1019.95
2022-12-18T17:27:10.309Z,1020.02
2022-12-18T17:37:10.255Z,1019.92
2022-12-18T17:47:10.331Z,1019.81
2022-12-18T17:57:10.409Z,1019.98
2022-12-18T18:07:10.391Z,1019.75
2022-12-18T18:17:10.335Z,1019.75
2022-12-18T18:27:10.491Z,1019.42
2022-12-18T18:37:10.441Z,1019.43
2022-12-18T18:47:10.469Z,1019.18
2022-12-18T18:57:20.308Z,1019.21
2022-12-18T19:07:10.646Z,1019.00
2022-12-18T19:17:10.597Z,1018.81
